sensor_id;sensor_type;location;lat;lon;timestamp;temperature;humidity
11083;DHT22;5595;50.186;8.468;2024-01-15T00:00:13;-1.60;99.90
11083;DHT22;5595;50.186;8.468;2024-01-15T00:02:40;-1.60;99.90
11083;DHT22;5595;50.186;8.468;2024-01-15T00:05:07;-1.60;99.90
11083;DHT22;5595;50.186;8.468;2024-01-15T00:07:34;-1.70;99.90
11083;DHT22;5595;50.186;8.468;2024-01-15T00:10:02;-1.70;99.90
11083;DHT22;5595;50.186;8.468;2024-01-15T00:12:28;-1.60;99.90
11083;DHT22;5595;50.186;8.468;2024-01-15T00:14:56;-1.60;99.90
11083;DHT22;5595;50.186;8.468;2024-01-15T00:17:23;-1.60;99.90
11083;DHT22;5595;50.186;8.468;2024-01-15T00:19:50;-1.70;99.90
11083;DHT22;5595;50.186;8.468;2024-01-15T00:22:17;-1.70;99.90
11083;DHT22;5595;50.186;8.468;2024-01-15T00:24:44;-1.70;99.90
11083;DHT22;5595;50.186;8.468;2024-01-15T00:27:11;-1.70;99.90
11083;DHT22;5595;50.186;8.468;2024-01-15T00:29:40;-1.70;99.90
11083;DHT22;5595;50.186;8.468;2024-01-15T00:32:08;-1.70;99.90
11083;DHT22;5595;50.186;8.468;2024-01-15T00:34:35;-1.60;99.90
11083;DHT22;5595;50.186;8.468;2024-01-15T00:37:01;-1.60;99.90
11083;DHT22;5595;50.186;8.468;2024-01-15T00:39:29;-1.70;99.90
11083;DHT22;5595;50.186;8.468;2024-01-15T00:41:56;-1.70;99.90
11083;DHT22;5595;50.186;8.468;2024-01-15T00:44:23;-1.70;99.90
11083;DHT22;5595;50.186;8.468;2024-01-15T00:46:50;-1.70;99.90
11083;DHT22;5595;50.186;8.468;2024-01-15T00:49:18;-1.70;99.90
11083;DHT22;5595;50.186;8.468;2024-01-15T00:51:45;-1.70;99.90
11083;DHT22;5595;50.186;8.468;2024-01-15T00:54:12;-1.70;99.90
11083;DHT22;5595;50.186;8.468;2024-01-15T00:56:38;-1.70;99.90
11083;DHT22;5595;50.186;8.468;2024-01-15T00:59:05;-1.60;99.90
11083;DHT22;5595;50.186;8.468;2024-01-15T01:01:33;-1.60;99.90
11083;DHT22;5595;50.186;8.468;2024-01-15T01:04:00;-1.60;99.90
11083;DHT22;5595;50.186;8.468;2024-01-15T01:06:28;-1.60;99.90
11083;DHT22;5595;50.186;8.468;2024-01-15T01:08:55;-1.60;99.90
11083;DHT22;5595;50.186;8.468;2024-01-15T01:11:21;-1.60;99.90
11083;DHT22;5595;50.186;8.468;2024-01-15T01:13:48;-1.60;99.90
11083;DHT22;5595;50.186;8.468;2024-01-15T01:16:15;-1.50;99.90
11083;DHT22;5595;50.186;8.468;2024-01-15T01:18:42;-1.50;99.90
11083;DHT22;5595;50.186;8.468;2024-01-15T01:21:09;-1.50;99.90
11083;DHT22;5595;50.186;8.468;2024-01-15T01:23:37;-1.50;99.90
11083;DHT22;5595;50.186;8.468;2024-01-15T01:26:04;-1.50;99.90
11083;DHT22;5595;50.186;8.468;2024-01-15T01:28:30;-1.40;99.90
11083;DHT22;5595;50.186;8.468;2024-01-15T01:30:57;-1.30;99.90
11083;DHT22;5595;50.186;8.468;2024-01-15T01:33:24;-1.40;99.90
11083;DHT22;5595;50.186;8.468;2024-01-15T01:35:51;-1.40;99.90
11083;DHT22;5595;50.186;8.468;2024-01-15T01:38:18;-1.30;99.90
11083;DHT22;5595;50.186;8.468;2024-01-15T01:40:46;-1.30;99.90
11083;DHT22;5595;50.186;8.468;2024-01-15T01:43:13;-1.20;99.90
11083;DHT22;5595;50.186;8.468;2024-01-15T01:45:42;-1.20;99.90
11083;DHT22;5595;50.186;8.468;2024-01-15T01:48:09;-1.10;99.90
11083;DHT22;5595;50.186;8.468;2024-01-15T01:50:35;-1.10;99.90
11083;DHT22;5595;50.186;8.468;2024-01-15T01:53:02;-1.10;99.90
11083;DHT22;5595;50.186;8.468;2024-01-15T01:55:31;-1.10;99.90
11083;DHT22;5595;50.186;8.468;2024-01-15T01:58:02;-1.10;99.90
11083;DHT22;5595;50.186;8.468;2024-01-15T02:00:30;-1.10;99.90
11083;DHT22;5595;50.186;8.468;2024-01-15T02:02:58;-1.10;99.90
11083;DHT22;5595;50.186;8.468;2024-01-15T02:05:25;-1.10;99.90
11083;DHT22;5595;50.186;8.468;2024-01-15T02:07:52;-1.10;99.90
11083;DHT22;5595;50.186;8.468;2024-01-15T02:10:19;-1.10;99.90
11083;DHT22;5595;50.186;8.468;2024-01-15T02:12:46;-1.10;99.90
11083;DHT22;5595;50.186;8.468;2024-01-15T02:15:15;-1.10;99.90
11083;DHT22;5595;50.186;8.468;2024-01-15T02:17:58;-1.00;99.90
11083;DHT22;5595;50.186;8.468;2024-01-15T02:20:25;-1.00;99.90
11083;DHT22;5595;50.186;8.468;2024-01-15T02:22:52;-1.00;99.90
11083;DHT22;5595;50.186;8.468;2024-01-15T02:25:20;-1.00;99.90
11083;DHT22;5595;50.186;8.468;2024-01-15T02:27:47;-1.00;99.90
11083;DHT22;5595;50.186;8.468;2024-01-15T02:30:14;-1.00;99.90
11083;DHT22;5595;50.186;8.468;2024-01-15T02:32:42;-1.10;99.90
11083;DHT22;5595;50.186;8.468;2024-01-15T02:35:08;-1.10;99.90
11083;DHT22;5595;50.186;8.468;2024-01-15T02:37:36;-1.10;99.90
11083;DHT22;5595;50.186;8.468;2024-01-15T02:40:03;-1.10;99.90
11083;DHT22;5595;50.186;8.468;2024-01-15T02:42:31;-1.00;99.90
11083;DHT22;5595;50.186;8.468;2024-01-15T02:45:00;-1.00;99.90
11083;DHT22;5595;50.186;8.468;2024-01-15T02:47:27;-1.00;99.90
11083;DHT22;5595;50.186;8.468;2024-01-15T02:49:54;-1.00;99.90
11083;DHT22;5595;50.186;8.468;2024-01-15T02:52:20;-1.00;99.90
11083;DHT22;5595;50.186;8.468;2024-01-15T02:54:49;-1.00;99.90
11083;DHT22;5595;50.186;8.468;2024-01-15T02:57:16;-1.00;99.90
11083;DHT22;5595;50.186;8.468;2024-01-15T02:59:44;-1.00;99.90
11083;DHT22;5595;50.186;8.468;2024-01-15T03:02:11;-0.90;99.90
11083;DHT22;5595;50.186;8.468;2024-01-15T03:04:42;-0.90;99.90
11083;DHT22;5595;50.186;8.468;2024-01-15T03:07:09;-0.90;99.90
11083;DHT22;5595;50.186;8.468;2024-01-15T03:09:35;-0.90;99.90
11083;DHT22;5595;50.186;8.468;2024-01-15T03:12:03;-0.90;99.90
11083;DHT22;5595;50.186;8.468;2024-01-15T03:14:30;-0.90;99.90
11083;DHT22;5595;50.186;8.468;2024-01-15T03:16:58;-1.00;99.90
11083;DHT22;5595;50.186;8.468;2024-01-15T03:19:26;-0.90;99.90
11083;DHT22;5595;50.186;8.468;2024-01-15T03:21:53;-1.00;99.90
11083;DHT22;5595;50.186;8.468;2024-01-15T03:24:20;-0.90;99.90
11083;DHT22;5595;50.186;8.468;2024-01-15T03:26:47;-1.00;99.90
11083;DHT22;5595;50.186;8.468;2024-01-15T03:29:14;-1.00;99.90
11083;DHT22;5595;50.186;8.468;2024-01-15T03:31:40;-1.00;99.90
11083;DHT22;5595;50.186;8.468;2024-01-15T03:34:08;-0.90;99.90
11083;DHT22;5595;50.186;8.468;2024-01-15T03:36:35;-1.00;99.90
11083;DHT22;5595;50.186;8.468;2024-01-15T03:39:02;-1.00;99.90
11083;DHT22;5595;50.186;8.468;2024-01-15T03:41:29;-1.00;99.90
11083;DHT22;5595;50.186;8.468;2024-01-15T03:43:55;-1.00;99.90
11083;DHT22;5595;50.186;8.468;2024-01-15T03:46:24;-1.00;99.90
11083;DHT22;5595;50.186;8.468;2024-01-15T03:48:50;-0.90;99.90
11083;DHT22;5595;50.186;8.468;2024-01-15T03:51:19;-0.90;99.90
11083;DHT22;5595;50.186;8.468;2024-01-15T03:53:45;-0.90;99.90
11083;DHT22;5595;50.186;8.468;2024-01-15T03:56:12;-0.90;99.90
11083;DHT22;5595;50.186;8.468;2024-01-15T03:58:39;-0.90;99.90
11083;DHT22;5595;50.186;8.468;2024-01-15T04:01:08;-0.90;99.90
11083;DHT22;5595;50.186;8.468;2024-01-15T04:03:35;-0.90;99.90
11083;DHT22;5595;50.186;8.468;2024-01-15T04:06:02;-0.90;99.90
11083;DHT22;5595;50.186;8.468;2024-01-15T04:08:30;-1.00;99.90
11083;DHT22;5595;50.186;8.468;2024-01-15T04:10:57;-0.90;99.90
11083;DHT22;5595;50.186;8.468;2024-01-15T04:13:24;-0.90;99.90
11083;DHT22;5595;50.186;8.468;2024-01-15T04:15:51;-0.90;99.90
11083;DHT22;5595;50.186;8.468;2024-01-15T04:18:17;-0.90;99.90
11083;DHT22;5595;50.186;8.468;2024-01-15T04:20:44;-0.90;99.90
11083;DHT22;5595;50.186;8.468;2024-01-15T04:23:11;-0.90;99.90
11083;DHT22;5595;50.186;8.468;2024-01-15T04:25:39;-0.90;99.90
11083;DHT22;5595;50.186;8.468;2024-01-15T04:28:08;-0.90;99.90
11083;DHT22;5595;50.186;8.468;2024-01-15T04:30:35;-0.90;99.90
11083;DHT22;5595;50.186;8.468;2024-01-15T04:33:02;-0.80;99.90
11083;DHT22;5595;50.186;8.468;2024-01-15T04:35:29;-0.80;99.90
11083;DHT22;5595;50.186;8.468;2024-01-15T04:37:56;-0.80;99.90
11083;DHT22;5595;50.186;8.468;2024-01-15T04:40:23;-0.90;99.90
11083;DHT22;5595;50.186;8.468;2024-01-15T04:42:54;-0.90;99.90
11083;DHT22;5595;50.186;8.468;2024-01-15T04:45:21;-0.90;99.90
11083;DHT22;5595;50.186;8.468;2024-01-15T04:47:48;-0.90;99.90
11083;DHT22;5595;50.186;8.468;2024-01-15T04:50:15;-0.90;99.90
11083;DHT22;5595;50.186;8.468;2024-01-15T04:52:42;-0.90;99.90
11083;DHT22;5595;50.186;8.468;2024-01-15T04:55:08;-0.80;99.90
11083;DHT22;5595;50.186;8.468;2024-01-15T04:57:35;-0.90;99.90
11083;DHT22;5595;50.186;8.468;2024-01-15T05:00:04;-0.90;99.90
11083;DHT22;5595;50.186;8.468;2024-01-15T05:02:31;-0.90;99.90
11083;DHT22;5595;50.186;8.468;2024-01-15T05:04:58;-0.90;99.90
11083;DHT22;5595;50.186;8.468;2024-01-15T05:07:25;-0.90;99.90
11083;DHT22;5595;50.186;8.468;2024-01-15T05:09:51;-0.90;99.90
11083;DHT22;5595;50.186;8.468;2024-01-15T05:12:18;-0.90;99.90
11083;DHT22;5595;50.186;8.468;2024-01-15T05:14:45;-0.80;99.90
11083;DHT22;5595;50.186;8.468;2024-01-15T05:17:13;-0.80;99.90
11083;DHT22;5595;50.186;8.468;2024-01-15T05:19:40;-0.80;99.90
11083;DHT22;5595;50.186;8.468;2024-01-15T05:22:06;-0.80;99.90
11083;DHT22;5595;50.186;8.468;2024-01-15T05:24:33;-0.80;99.90
11083;DHT22;5595;50.186;8.468;2024-01-15T05:27:00;-0.80;99.90
11083;DHT22;5595;50.186;8.468;2024-01-15T05:29:27;-0.70;99.90
11083;DHT22;5595;50.186;8.468;2024-01-15T05:31:53;-0.70;99.90
11083;DHT22;5595;50.186;8.468;2024-01-15T05:34:21;-0.70;99.90
11083;DHT22;5595;50.186;8.468;2024-01-15T05:36:48;-0.70;99.90
11083;DHT22;5595;50.186;8.468;2024-01-15T05:39:15;-0.70;99.90
11083;DHT22;5595;50.186;8.468;2024-01-15T05:41:42;-0.60;99.90
11083;DHT22;5595;50.186;8.468;2024-01-15T05:44:08;-0.60;99.90
11083;DHT22;5595;50.186;8.468;2024-01-15T05:46:36;-0.60;99.90
11083;DHT22;5595;50.186;8.468;2024-01-15T05:49:02;-0.60;99.90
11083;DHT22;5595;50.186;8.468;2024-01-15T05:51:31;-0.60;99.90
11083;DHT22;5595;50.186;8.468;2024-01-15T05:53:58;-0.50;99.90
11083;DHT22;5595;50.186;8.468;2024-01-15T05:56:24;-0.60;99.90
11083;DHT22;5595;50.186;8.468;2024-01-15T05:58:51;-0.60;99.90
11083;DHT22;5595;50.186;8.468;2024-01-15T06:01:18;-0.60;99.90
11083;DHT22;5595;50.186;8.468;2024-01-15T06:03:45;-0.60;99.90
11083;DHT22;5595;50.186;8.468;2024-01-15T06:06:12;-0.60;99.90
11083;DHT22;5595;50.186;8.468;2024-01-15T06:08:40;-0.60;99.90
11083;DHT22;5595;50.186;8.468;2024-01-15T06:11:07;-0.60;99.90
11083;DHT22;5595;50.186;8.468;2024-01-15T06:13:33;-0.60;99.90
11083;DHT22;5595;50.186;8.468;2024-01-15T06:16:00;-0.60;99.90
11083;DHT22;5595;50.186;8.468;2024-01-15T06:18:27;-0.50;99.90
11083;DHT22;5595;50.186;8.468;2024-01-15T06:20:54;-0.50;99.90
11083;DHT22;5595;50.186;8.468;2024-01-15T06:23:20;-0.40;99.90
11083;DHT22;5595;50.186;8.468;2024-01-15T06:25:48;-0.40;99.90
11083;DHT22;5595;50.186;8.468;2024-01-15T06:28:15;-0.40;99.90
11083;DHT22;5595;50.186;8.468;2024-01-15T06:30:42;-0.40;99.90
11083;DHT22;5595;50.186;8.468;2024-01-15T06:33:09;-0.40;99.90
11083;DHT22;5595;50.186;8.468;2024-01-15T06:35:35;-0.40;99.90
11083;DHT22;5595;50.186;8.468;2024-01-15T06:38:02;-0.40;99.90
11083;DHT22;5595;50.186;8.468;2024-01-15T06:40:29;-0.40;99.90
11083;DHT22;5595;50.186;8.468;2024-01-15T06:42:57;-0.30;99.90
11083;DHT22;5595;50.186;8.468;2024-01-15T06:45:24;-0.30;99.90
11083;DHT22;5595;50.186;8.468;2024-01-15T06:47:51;-0.30;99.90
11083;DHT22;5595;50.186;8.468;2024-01-15T06:50:18;-0.20;99.90
11083;DHT22;5595;50.186;8.468;2024-01-15T06:52:44;-0.20;99.90
11083;DHT22;5595;50.186;8.468;2024-01-15T06:55:13;-0.20;99.90
11083;DHT22;5595;50.186;8.468;2024-01-15T06:57:40;-0.20;99.90
11083;DHT22;5595;50.186;8.468;2024-01-15T07:00:09;-0.20;99.90
11083;DHT22;5595;50.186;8.468;2024-01-15T07:02:36;-0.20;99.90
11083;DHT22;5595;50.186;8.468;2024-01-15T07:05:03;-0.20;99.90
11083;DHT22;5595;50.186;8.468;2024-01-15T07:07:30;-0.20;99.90
11083;DHT22;5595;50.186;8.468;2024-01-15T07:09:57;-0.20;99.90
11083;DHT22;5595;50.186;8.468;2024-01-15T07:12:24;-0.20;99.90
11083;DHT22;5595;50.186;8.468;2024-01-15T07:14:51;-0.20;99.90
11083;DHT22;5595;50.186;8.468;2024-01-15T07:17:19;-0.20;99.90
11083;DHT22;5595;50.186;8.468;2024-01-15T07:19:46;-0.30;99.90
11083;DHT22;5595;50.186;8.468;2024-01-15T07:22:13;-0.40;99.90
11083;DHT22;5595;50.186;8.468;2024-01-15T07:24:40;-0.40;99.90
11083;DHT22;5595;50.186;8.468;2024-01-15T07:27:07;-0.30;99.90
11083;DHT22;5595;50.186;8.468;2024-01-15T07:29:34;-0.30;99.90
11083;DHT22;5595;50.186;8.468;2024-01-15T07:32:03;-0.30;99.90
11083;DHT22;5595;50.186;8.468;2024-01-15T07:34:31;-0.30;99.90
11083;DHT22;5595;50.186;8.468;2024-01-15T07:36:58;-0.20;99.90
11083;DHT22;5595;50.186;8.468;2024-01-15T07:39:25;-0.20;99.90
11083;DHT22;5595;50.186;8.468;2024-01-15T07:41:54;-0.20;99.90
11083;DHT22;5595;50.186;8.468;2024-01-15T07:44:21;-0.20;99.90
11083;DHT22;5595;50.186;8.468;2024-01-15T07:46:48;-0.10;99.90
11083;DHT22;5595;50.186;8.468;2024-01-15T07:49:14;-0.10;99.90
11083;DHT22;5595;50.186;8.468;2024-01-15T07:51:43;-0.20;99.90
11083;DHT22;5595;50.186;8.468;2024-01-15T07:54:10;-0.10;99.90
11083;DHT22;5595;50.186;8.468;2024-01-15T07:56:56;-0.10;99.90
11083;DHT22;5595;50.186;8.468;2024-01-15T07:59:23;0.00;99.90
11083;DHT22;5595;50.186;8.468;2024-01-15T08:01:50;-0.10;99.90
11083;DHT22;5595;50.186;8.468;2024-01-15T08:04:16;-0.10;99.90
11083;DHT22;5595;50.186;8.468;2024-01-15T08:06:45;0.00;99.90
11083;DHT22;5595;50.186;8.468;2024-01-15T08:09:12;0.00;99.90
11083;DHT22;5595;50.186;8.468;2024-01-15T08:11:39;0.00;99.90
11083;DHT22;5595;50.186;8.468;2024-01-15T08:14:07;0.00;99.90
11083;DHT22;5595;50.186;8.468;2024-01-15T08:16:34;0.00;99.90
11083;DHT22;5595;50.186;8.468;2024-01-15T08:19:01;0.00;99.90
11083;DHT22;5595;50.186;8.468;2024-01-15T08:21:28;0.00;99.90
11083;DHT22;5595;50.186;8.468;2024-01-15T08:23:57;0.00;99.90
11083;DHT22;5595;50.186;8.468;2024-01-15T08:26:23;0.00;99.90
11083;DHT22;5595;50.186;8.468;2024-01-15T08:28:50;0.00;99.90
11083;DHT22;5595;50.186;8.468;2024-01-15T08:31:17;0.00;99.90
11083;DHT22;5595;50.186;8.468;2024-01-15T08:33:44;0.10;99.90
11083;DHT22;5595;50.186;8.468;2024-01-15T08:36:11;0.10;99.90
11083;DHT22;5595;50.186;8.468;2024-01-15T08:38:38;0.20;99.90
11083;DHT22;5595;50.186;8.468;2024-01-15T08:41:06;0.20;99.90
11083;DHT22;5595;50.186;8.468;2024-01-15T08:43:33;0.20;99.90
11083;DHT22;5595;50.186;8.468;2024-01-15T08:46:00;0.20;99.90
11083;DHT22;5595;50.186;8.468;2024-01-15T08:48:28;0.20;99.90
11083;DHT22;5595;50.186;8.468;2024-01-15T08:50:55;0.10;99.90
11083;DHT22;5595;50.186;8.468;2024-01-15T08:53:22;0.20;99.90
11083;DHT22;5595;50.186;8.468;2024-01-15T08:55:49;0.20;99.90
11083;DHT22;5595;50.186;8.468;2024-01-15T08:58:17;0.20;99.90
11083;DHT22;5595;50.186;8.468;2024-01-15T09:00:44;0.30;99.90
11083;DHT22;5595;50.186;8.468;2024-01-15T09:03:11;0.40;99.90
11083;DHT22;5595;50.186;8.468;2024-01-15T09:05:38;0.50;99.90
11083;DHT22;5595;50.186;8.468;2024-01-15T09:08:06;0.60;99.90
11083;DHT22;5595;50.186;8.468;2024-01-15T09:10:33;0.80;99.90
11083;DHT22;5595;50.186;8.468;2024-01-15T09:12:59;0.90;99.90
11083;DHT22;5595;50.186;8.468;2024-01-15T09:15:27;1.10;99.90
11083;DHT22;5595;50.186;8.468;2024-01-15T09:17:54;1.20;99.90
11083;DHT22;5595;50.186;8.468;2024-01-15T09:20:22;1.10;99.90
11083;DHT22;5595;50.186;8.468;2024-01-15T09:22:49;1.10;99.90
11083;DHT22;5595;50.186;8.468;2024-01-15T09:25:16;1.20;99.90
11083;DHT22;5595;50.186;8.468;2024-01-15T09:27:44;1.30;99.90
11083;DHT22;5595;50.186;8.468;2024-01-15T09:30:12;1.50;99.90
11083;DHT22;5595;50.186;8.468;2024-01-15T09:32:40;1.60;99.90
11083;DHT22;5595;50.186;8.468;2024-01-15T09:35:07;1.70;99.90
11083;DHT22;5595;50.186;8.468;2024-01-15T09:37:34;1.70;99.90
11083;DHT22;5595;50.186;8.468;2024-01-15T09:40:03;1.80;99.90
11083;DHT22;5595;50.186;8.468;2024-01-15T09:42:30;1.80;99.90
11083;DHT22;5595;50.186;8.468;2024-01-15T09:44:57;1.70;99.90
11083;DHT22;5595;50.186;8.468;2024-01-15T09:47:24;1.70;99.90
11083;DHT22;5595;50.186;8.468;2024-01-15T09:49:53;1.60;99.90
11083;DHT22;5595;50.186;8.468;2024-01-15T09:52:19;1.50;99.90
11083;DHT22;5595;50.186;8.468;2024-01-15T09:54:47;1.50;99.90
11083;DHT22;5595;50.186;8.468;2024-01-15T09:57:15;1.50;99.90
11083;DHT22;5595;50.186;8.468;2024-01-15T09:59:44;1.50;99.90
11083;DHT22;5595;50.186;8.468;2024-01-15T10:02:13;1.60;99.90
11083;DHT22;5595;50.186;8.468;2024-01-15T10:04:44;1.60;99.90
11083;DHT22;5595;50.186;8.468;2024-01-15T10:07:14;1.60;99.90
11083;DHT22;5595;50.186;8.468;2024-01-15T10:09:41;1.60;99.90
11083;DHT22;5595;50.186;8.468;2024-01-15T10:12:09;1.60;99.90
11083;DHT22;5595;50.186;8.468;2024-01-15T10:14:36;1.60;99.90
11083;DHT22;5595;50.186;8.468;2024-01-15T10:17:12;1.60;99.90
11083;DHT22;5595;50.186;8.468;2024-01-15T10:19:39;1.60;99.90
11083;DHT22;5595;50.186;8.468;2024-01-15T10:22:07;1.50;99.90
11083;DHT22;5595;50.186;8.468;2024-01-15T10:24:36;1.40;99.90
11083;DHT22;5595;50.186;8.468;2024-01-15T10:27:05;1.30;99.90
11083;DHT22;5595;50.186;8.468;2024-01-15T10:29:32;1.20;99.90
11083;DHT22;5595;50.186;8.468;2024-01-15T10:31:59;1.10;99.90
11083;DHT22;5595;50.186;8.468;2024-01-15T10:34:26;1.00;99.90
11083;DHT22;5595;50.186;8.468;2024-01-15T10:36:53;1.00;99.90
11083;DHT22;5595;50.186;8.468;2024-01-15T10:39:21;1.10;99.90
11083;DHT22;5595;50.186;8.468;2024-01-15T10:41:50;1.30;99.90
11083;DHT22;5595;50.186;8.468;2024-01-15T10:44:17;1.50;99.90
11083;DHT22;5595;50.186;8.468;2024-01-15T10:46:45;1.60;99.90
11083;DHT22;5595;50.186;8.468;2024-01-15T10:49:12;1.80;99.90
11083;DHT22;5595;50.186;8.468;2024-01-15T10:51:39;2.00;99.90
11083;DHT22;5595;50.186;8.468;2024-01-15T10:54:09;2.20;99.90
11083;DHT22;5595;50.186;8.468;2024-01-15T10:56:37;2.30;99.90
11083;DHT22;5595;50.186;8.468;2024-01-15T10:59:07;2.40;99.90
11083;DHT22;5595;50.186;8.468;2024-01-15T11:01:36;2.40;99.90
11083;DHT22;5595;50.186;8.468;2024-01-15T11:04:04;2.40;99.90
11083;DHT22;5595;50.186;8.468;2024-01-15T11:06:42;2.50;99.90
11083;DHT22;5595;50.186;8.468;2024-01-15T11:09:09;2.70;99.90
11083;DHT22;5595;50.186;8.468;2024-01-15T11:11:40;2.70;99.90
11083;DHT22;5595;50.186;8.468;2024-01-15T11:14:09;2.70;99.90
11083;DHT22;5595;50.186;8.468;2024-01-15T11:17:03;2.50;99.90
11083;DHT22;5595;50.186;8.468;2024-01-15T11:19:43;2.40;99.90
11083;DHT22;5595;50.186;8.468;2024-01-15T11:22:49;2.40;99.90
11083;DHT22;5595;50.186;8.468;2024-01-15T11:25:17;2.50;99.90
11083;DHT22;5595;50.186;8.468;2024-01-15T11:27:46;2.70;99.90
11083;DHT22;5595;50.186;8.468;2024-01-15T11:30:16;2.80;99.90
11083;DHT22;5595;50.186;8.468;2024-01-15T11:32:45;2.90;99.90
11083;DHT22;5595;50.186;8.468;2024-01-15T11:35:13;3.00;99.90
11083;DHT22;5595;50.186;8.468;2024-01-15T11:37:59;3.10;99.90
11083;DHT22;5595;50.186;8.468;2024-01-15T11:40:39;3.00;99.90
11083;DHT22;5595;50.186;8.468;2024-01-15T11:43:08;3.00;99.90
11083;DHT22;5595;50.186;8.468;2024-01-15T11:45:37;2.90;99.90
11083;DHT22;5595;50.186;8.468;2024-01-15T11:48:11;2.80;99.90
11083;DHT22;5595;50.186;8.468;2024-01-15T11:50:40;2.80;99.90
11083;DHT22;5595;50.186;8.468;2024-01-15T11:53:15;2.80;99.90
11083;DHT22;5595;50.186;8.468;2024-01-15T11:55:44;2.90;99.90
11083;DHT22;5595;50.186;8.468;2024-01-15T11:58:12;2.90;99.90
11083;DHT22;5595;50.186;8.468;2024-01-15T12:00:45;2.90;99.90
11083;DHT22;5595;50.186;8.468;2024-01-15T12:03:15;2.90;99.90
11083;DHT22;5595;50.186;8.468;2024-01-15T12:05:42;2.70;99.90
11083;DHT22;5595;50.186;8.468;2024-01-15T12:08:09;2.60;99.90
11083;DHT22;5595;50.186;8.468;2024-01-15T12:10:37;2.60;99.90
11083;DHT22;5595;50.186;8.468;2024-01-15T12:13:10;2.60;99.90
11083;DHT22;5595;50.186;8.468;2024-01-15T12:15:37;2.60;99.90
11083;DHT22;5595;50.186;8.468;2024-01-15T12:18:08;2.60;99.90
11083;DHT22;5595;50.186;8.468;2024-01-15T12:20:35;2.60;99.90
11083;DHT22;5595;50.186;8.468;2024-01-15T12:23:03;2.50;99.90
11083;DHT22;5595;50.186;8.468;2024-01-15T12:25:30;2.40;99.90
11083;DHT22;5595;50.186;8.468;2024-01-15T12:27:59;2.40;99.90
11083;DHT22;5595;50.186;8.468;2024-01-15T12:30:26;2.40;99.90
11083;DHT22;5595;50.186;8.468;2024-01-15T12:32:53;2.30;99.90
11083;DHT22;5595;50.186;8.468;2024-01-15T12:35:21;2.40;99.90
11083;DHT22;5595;50.186;8.468;2024-01-15T12:37:48;2.40;99.90
11083;DHT22;5595;50.186;8.468;2024-01-15T12:40:19;2.50;99.90
11083;DHT22;5595;50.186;8.468;2024-01-15T12:42:46;2.50;99.90
11083;DHT22;5595;50.186;8.468;2024-01-15T12:45:13;2.50;99.90
11083;DHT22;5595;50.186;8.468;2024-01-15T12:47:40;2.70;99.90
11083;DHT22;5595;50.186;8.468;2024-01-15T12:50:08;2.80;99.90
11083;DHT22;5595;50.186;8.468;2024-01-15T12:52:36;2.90;99.90
11083;DHT22;5595;50.186;8.468;2024-01-15T12:55:05;2.80;99.90
11083;DHT22;5595;50.186;8.468;2024-01-15T12:57:32;2.70;99.90
11083;DHT22;5595;50.186;8.468;2024-01-15T12:59:59;2.70;99.90
11083;DHT22;5595;50.186;8.468;2024-01-15T13:02:26;2.80;99.90
11083;DHT22;5595;50.186;8.468;2024-01-15T13:04:53;2.80;99.90
11083;DHT22;5595;50.186;8.468;2024-01-15T13:07:20;2.80;99.90
11083;DHT22;5595;50.186;8.468;2024-01-15T13:09:49;2.80;99.90
11083;DHT22;5595;50.186;8.468;2024-01-15T13:12:19;2.80;99.90
11083;DHT22;5595;50.186;8.468;2024-01-15T13:14:46;2.70;99.90
11083;DHT22;5595;50.186;8.468;2024-01-15T13:17:13;2.60;99.90
11083;DHT22;5595;50.186;8.468;2024-01-15T13:19:40;2.60;99.90
11083;DHT22;5595;50.186;8.468;2024-01-15T13:22:07;2.60;99.90
11083;DHT22;5595;50.186;8.468;2024-01-15T13:24:34;2.70;99.90
11083;DHT22;5595;50.186;8.468;2024-01-15T13:27:04;2.70;99.90
11083;DHT22;5595;50.186;8.468;2024-01-15T13:29:31;2.60;99.90
11083;DHT22;5595;50.186;8.468;2024-01-15T13:31:59;2.60;99.90
11083;DHT22;5595;50.186;8.468;2024-01-15T13:34:26;2.60;99.90
11083;DHT22;5595;50.186;8.468;2024-01-15T13:36:53;2.70;99.90
11083;DHT22;5595;50.186;8.468;2024-01-15T13:39:21;2.50;99.90
11083;DHT22;5595;50.186;8.468;2024-01-15T13:41:49;2.40;99.90
11083;DHT22;5595;50.186;8.468;2024-01-15T13:44:18;2.50;99.90
11083;DHT22;5595;50.186;8.468;2024-01-15T13:46:44;2.50;99.90
11083;DHT22;5595;50.186;8.468;2024-01-15T13:49:11;2.50;99.90
11083;DHT22;5595;50.186;8.468;2024-01-15T13:51:38;2.50;99.90
11083;DHT22;5595;50.186;8.468;2024-01-15T13:54:05;2.50;99.90
11083;DHT22;5595;50.186;8.468;2024-01-15T13:56:33;2.60;99.90
11083;DHT22;5595;50.186;8.468;2024-01-15T13:59:01;2.40;99.90
11083;DHT22;5595;50.186;8.468;2024-01-15T14:01:30;2.40;99.90
11083;DHT22;5595;50.186;8.468;2024-01-15T14:03:58;2.20;99.90
11083;DHT22;5595;50.186;8.468;2024-01-15T14:06:25;2.10;99.90
11083;DHT22;5595;50.186;8.468;2024-01-15T14:08:52;2.10;99.90
11083;DHT22;5595;50.186;8.468;2024-01-15T14:11:18;1.90;99.90
11083;DHT22;5595;50.186;8.468;2024-01-15T14:13:45;1.80;99.90
11083;DHT22;5595;50.186;8.468;2024-01-15T14:16:13;1.70;99.90
11083;DHT22;5595;50.186;8.468;2024-01-15T14:18:41;1.60;99.90
11083;DHT22;5595;50.186;8.468;2024-01-15T14:21:07;1.60;99.90
11083;DHT22;5595;50.186;8.468;2024-01-15T14:23:35;1.50;99.90
11083;DHT22;5595;50.186;8.468;2024-01-15T14:26:02;1.50;99.90
11083;DHT22;5595;50.186;8.468;2024-01-15T14:28:29;1.60;99.90
11083;DHT22;5595;50.186;8.468;2024-01-15T14:30:56;1.70;99.90
11083;DHT22;5595;50.186;8.468;2024-01-15T14:33:24;1.80;99.90
11083;DHT22;5595;50.186;8.468;2024-01-15T14:35:53;1.80;99.90
11083;DHT22;5595;50.186;8.468;2024-01-15T14:38:21;1.70;99.90
11083;DHT22;5595;50.186;8.468;2024-01-15T14:40:48;1.70;99.90
11083;DHT22;5595;50.186;8.468;2024-01-15T14:43:15;1.70;99.90
11083;DHT22;5595;50.186;8.468;2024-01-15T14:45:42;1.80;99.90
11083;DHT22;5595;50.186;8.468;2024-01-15T14:48:10;1.80;99.90
11083;DHT22;5595;50.186;8.468;2024-01-15T14:50:38;1.80;99.90
11083;DHT22;5595;50.186;8.468;2024-01-15T14:53:06;1.90;99.90
11083;DHT22;5595;50.186;8.468;2024-01-15T14:55:33;1.90;99.90
11083;DHT22;5595;50.186;8.468;2024-01-15T14:58:00;1.90;99.90
11083;DHT22;5595;50.186;8.468;2024-01-15T15:00:28;1.90;99.90
11083;DHT22;5595;50.186;8.468;2024-01-15T15:02:54;1.90;99.90
11083;DHT22;5595;50.186;8.468;2024-01-15T15:05:21;1.90;99.90
11083;DHT22;5595;50.186;8.468;2024-01-15T15:07:48;1.90;99.90
11083;DHT22;5595;50.186;8.468;2024-01-15T15:10:16;1.80;99.90
11083;DHT22;5595;50.186;8.468;2024-01-15T15:12:43;1.80;99.90
11083;DHT22;5595;50.186;8.468;2024-01-15T15:15:10;1.80;99.90
11083;DHT22;5595;50.186;8.468;2024-01-15T15:17:38;1.80;99.90
11083;DHT22;5595;50.186;8.468;2024-01-15T15:20:07;1.80;99.90
11083;DHT22;5595;50.186;8.468;2024-01-15T15:22:34;1.80;99.90
11083;DHT22;5595;50.186;8.468;2024-01-15T15:25:00;1.70;99.90
11083;DHT22;5595;50.186;8.468;2024-01-15T15:27:29;1.60;99.90
11083;DHT22;5595;50.186;8.468;2024-01-15T15:29:55;1.60;99.90
11083;DHT22;5595;50.186;8.468;2024-01-15T15:32:22;1.50;99.90
11083;DHT22;5595;50.186;8.468;2024-01-15T15:34:49;1.50;99.90
11083;DHT22;5595;50.186;8.468;2024-01-15T15:37:16;1.60;99.90
11083;DHT22;5595;50.186;8.468;2024-01-15T15:39:42;1.50;99.90
11083;DHT22;5595;50.186;8.468;2024-01-15T15:42:08;1.40;99.90
11083;DHT22;5595;50.186;8.468;2024-01-15T15:44:37;1.40;99.90
11083;DHT22;5595;50.186;8.468;2024-01-15T15:47:08;1.30;99.90
11083;DHT22;5595;50.186;8.468;2024-01-15T15:49:36;1.20;99.90
11083;DHT22;5595;50.186;8.468;2024-01-15T15:52:03;1.20;99.90
11083;DHT22;5595;50.186;8.468;2024-01-15T15:54:30;1.10;99.90
11083;DHT22;5595;50.186;8.468;2024-01-15T15:56:56;1.10;99.90